createdAt,value
2018-11-20T00:02:14.910Z,4.70
2018-11-20T00:05:01.606Z,4.70
2018-11-20T00:07:48.441Z,4.70
2018-11-20T00:10:35.271Z,4.70
2018-11-20T00:13:22.743Z,4.70
2018-11-20T00:16:11.045Z,4.70
2018-11-20T00:19:08.077Z,4.70
2018-11-20T00:22:01.916Z,4.70
2018-11-20T00:24:41.766Z,4.60
2018-11-20T00:27:29.840Z,4.60
2018-11-20T00:30:20.802Z,4.50
2018-11-20T00:32:59.515Z,4.40
2018-11-20T00:35:59.967Z,4.30
2018-11-20T00:38:46.739Z,4.30
2018-11-20T00:41:40.994Z,4.20
2018-11-20T00:44:31.849Z,4.20
2018-11-20T00:47:18.352Z,4.20
2018-11-20T00:50:12.135Z,4.20
2018-11-20T00:52:54.374Z,4.20
2018-11-20T00:56:10.482Z,4.20
2018-11-20T00:58:48.713Z,4.30
2018-11-20T01:01:42.577Z,4.20
2018-11-20T01:04:29.483Z,4.20
2018-11-20T01:07:17.685Z,4.30
2018-11-20T01:10:04.360Z,4.20
2018-11-20T01:12:43.118Z,4.30
2018-11-20T01:15:23.331Z,4.30
2018-11-20T01:18:09.468Z,4.20
2018-11-20T01:21:01.363Z,4.20
2018-11-20T01:24:01.558Z,4.30
2018-11-20T01:26:47.168Z,4.30
2018-11-20T01:29:45.080Z,4.30
2018-11-20T01:32:32.478Z,4.30
2018-11-20T01:35:31.707Z,4.30
2018-11-20T01:38:18.671Z,4.30
2018-11-20T01:40:56.832Z,4.40
2018-11-20T01:43:45.091Z,4.40
2018-11-20T01:46:44.072Z,4.30
2018-11-20T01:49:38.177Z,4.40
2018-11-20T01:52:35.661Z,4.30
2018-11-20T01:55:42.626Z,4.30
2018-11-20T01:58:26.905Z,4.30
2018-11-20T02:01:12.392Z,4.30
2018-11-20T02:04:00.630Z,4.30
2018-11-20T02:06:54.393Z,4.30
2018-11-20T02:09:41.247Z,4.40
2018-11-20T02:12:35.551Z,4.30
2018-11-20T02:15:23.782Z,4.30
2018-11-20T02:18:31.290Z,4.30
2018-11-20T02:21:18.007Z,4.30
2018-11-20T02:24:04.713Z,4.30
2018-11-20T02:26:51.610Z,4.30
2018-11-20T02:29:36.068Z,4.30
2018-11-20T02:32:34.421Z,4.30
2018-11-20T02:35:17.727Z,4.30
2018-11-20T02:38:04.733Z,4.30
2018-11-20T02:40:51.790Z,4.30
2018-11-20T02:43:38.452Z,4.40
2018-11-20T02:46:25.384Z,4.30
2018-11-20T02:49:12.255Z,4.30
2018-11-20T02:52:03.201Z,4.30
2018-11-20T02:54:50.401Z,4.30
2018-11-20T02:57:31.576Z,4.40
2018-11-20T03:00:25.352Z,4.30
2018-11-20T03:03:03.044Z,4.40
2018-11-20T03:06:00.303Z,4.30
2018-11-20T03:08:43.639Z,4.30
2018-11-20T03:11:24.628Z,4.30
2018-11-20T03:14:18.659Z,4.20
2018-11-20T03:17:05.537Z,4.30
2018-11-20T03:19:53.732Z,4.30
2018-11-20T03:22:40.421Z,4.30
2018-11-20T03:25:58.660Z,4.30
2018-11-20T03:29:01.800Z,4.30
2018-11-20T03:31:59.162Z,4.20
2018-11-20T03:34:45.868Z,4.30
2018-11-20T03:37:21.791Z,4.20
2018-11-20T03:40:08.647Z,4.20
2018-11-20T03:42:56.148Z,4.10
2018-11-20T03:45:53.601Z,4.20
2018-11-20T03:48:47.799Z,4.20
2018-11-20T03:51:42.944Z,4.20
2018-11-20T03:54:31.124Z,4.10
2018-11-20T03:57:18.102Z,4.10
2018-11-20T04:00:00.655Z,4.10
2018-11-20T04:02:47.468Z,4.20
2018-11-20T04:05:32.449Z,4.10
2018-11-20T04:08:19.481Z,4.10
2018-11-20T04:11:06.335Z,4.10
2018-11-20T04:13:44.734Z,4.10
2018-11-20T04:16:32.897Z,4.10
2018-11-20T04:19:19.815Z,4.10
2018-11-20T04:22:10.768Z,4.00
2018-11-20T04:24:57.988Z,4.10
2018-11-20T04:27:44.036Z,4.10
2018-11-20T04:31:11.277Z,4.10
2018-11-20T04:34:05.732Z,4.00
2018-11-20T04:36:52.227Z,4.10
2018-11-20T04:39:40.369Z,4.10
2018-11-20T04:42:27.165Z,4.00
2018-11-20T04:45:18.263Z,4.10
2018-11-20T04:47:58.812Z,4.10
2018-11-20T04:50:38.309Z,4.10
2018-11-20T04:53:19.019Z,4.10
2018-11-20T04:56:11.129Z,4.10
2018-11-20T04:58:48.852Z,4.20
2018-11-20T05:01:37.029Z,4.20
2018-11-20T05:04:17.963Z,4.20
2018-11-20T05:07:06.187Z,4.20
2018-11-20T05:09:51.495Z,4.20
2018-11-20T05:12:38.430Z,4.20
2018-11-20T05:15:25.413Z,4.30
2018-11-20T05:18:12.649Z,4.20
2018-11-20T05:20:53.890Z,4.20
2018-11-20T05:23:51.073Z,4.30
2018-11-20T05:26:54.408Z,4.30
2018-11-20T05:29:46.046Z,4.30
2018-11-20T05:32:29.835Z,4.20
2018-11-20T05:35:10.475Z,4.30
2018-11-20T05:38:13.909Z,4.40
2018-11-20T05:41:01.951Z,4.40
2018-11-20T05:43:44.585Z,4.40
2018-11-20T05:46:31.190Z,4.30
2018-11-20T05:49:37.791Z,4.30
2018-11-20T05:52:26.024Z,4.40
2018-11-20T05:55:25.978Z,4.40
2018-11-20T05:58:13.019Z,4.40
2018-11-20T06:01:10.611Z,4.40
2018-11-20T06:03:56.787Z,4.40
2018-11-20T06:06:53.839Z,4.40
2018-11-20T06:09:53.910Z,4.40
2018-11-20T06:12:38.422Z,4.40
2018-11-20T06:15:25.317Z,4.40
2018-11-20T06:18:19.086Z,4.40
2018-11-20T06:21:25.246Z,4.40
2018-11-20T06:24:19.294Z,4.40
2018-11-20T06:27:02.459Z,4.40
2018-11-20T06:30:00.107Z,4.40
2018-11-20T06:32:46.834Z,4.40
2018-11-20T06:35:39.043Z,4.40
2018-11-20T06:38:25.625Z,4.40
2018-11-20T06:41:12.811Z,4.40
2018-11-20T06:44:17.000Z,4.40
2018-11-20T06:46:58.517Z,4.40
2018-11-20T06:49:46.012Z,4.50
2018-11-20T06:52:52.241Z,4.50
2018-11-20T06:55:39.751Z,4.60
2018-11-20T06:58:22.678Z,4.50
2018-11-20T07:01:03.235Z,4.60
2018-11-20T07:03:51.469Z,4.60
2018-11-20T07:06:48.639Z,4.60
2018-11-20T07:09:40.300Z,4.60
2018-11-20T07:12:26.522Z,4.60
2018-11-20T07:15:04.434Z,4.60
2018-11-20T07:17:58.503Z,4.70
2018-11-20T07:20:49.507Z,4.80
2018-11-20T07:23:35.413Z,4.60
2018-11-20T07:26:29.805Z,4.60
2018-11-20T07:29:26.872Z,4.70
2018-11-20T07:32:08.298Z,4.70
2018-11-20T07:34:51.029Z,4.70
2018-11-20T07:37:48.193Z,4.80
2018-11-20T07:40:28.122Z,4.70
2018-11-20T07:43:16.339Z,4.70
2018-11-20T07:49:26.091Z,4.70
2018-11-20T07:52:15.109Z,4.70
2018-11-20T07:55:06.149Z,4.80
2018-11-20T07:57:47.087Z,4.80
2018-11-20T08:00:37.876Z,4.80
2018-11-20T08:03:19.840Z,4.70
2018-11-20T08:06:20.352Z,4.80
2018-11-20T08:09:08.489Z,4.80
2018-11-20T08:11:55.527Z,4.70
2018-11-20T08:14:43.830Z,4.80
2018-11-20T08:17:44.385Z,4.90
2018-11-20T08:20:31.285Z,4.90
2018-11-20T08:23:18.828Z,4.90
2018-11-20T08:26:03.467Z,4.80
2018-11-20T08:29:06.844Z,4.80
2018-11-20T08:31:58.675Z,4.80
2018-11-20T08:34:52.644Z,4.90
2018-11-20T08:37:34.665Z,4.90
2018-11-20T08:40:21.472Z,5.00
2018-11-20T08:43:10.022Z,5.00
2018-11-20T08:46:03.980Z,4.90
2018-11-20T08:48:50.661Z,5.00
2018-11-20T08:51:31.401Z,5.10
2018-11-20T08:54:18.336Z,5.10
2018-11-20T08:57:03.199Z,5.10
2018-11-20T08:59:50.135Z,5.10
2018-11-20T09:02:55.579Z,5.20
2018-11-20T09:05:52.611Z,5.20
2018-11-20T09:08:40.609Z,5.30
2018-11-20T09:11:24.579Z,5.30
2018-11-20T09:14:10.112Z,5.30
2018-11-20T09:17:01.091Z,5.30
2018-11-20T09:19:49.313Z,5.30
2018-11-20T09:22:34.892Z,5.30
2018-11-20T09:25:28.823Z,5.30
2018-11-20T09:28:12.284Z,5.30
2018-11-20T09:31:00.436Z,5.40
2018-11-20T09:33:39.146Z,5.50
2018-11-20T09:36:29.936Z,5.40
2018-11-20T09:39:27.556Z,5.60
2018-11-20T09:42:14.589Z,5.60
2018-11-20T09:45:25.447Z,5.60
2018-11-20T09:48:21.143Z,5.50
2018-11-20T09:51:01.966Z,5.60
2018-11-20T09:53:50.253Z,5.60
2018-11-20T09:56:38.425Z,5.80
2018-11-20T09:59:22.629Z,5.80
2018-11-20T10:02:02.602Z,5.80
2018-11-20T10:04:46.158Z,5.80
2018-11-20T10:07:35.375Z,5.80
2018-11-20T10:10:23.901Z,5.90
2018-11-20T10:13:11.493Z,5.80
2018-11-20T10:16:13.903Z,5.80
2018-11-20T10:18:58.396Z,5.80
2018-11-20T10:21:52.664Z,5.80
2018-11-20T10:24:47.536Z,5.80
2018-11-20T10:27:36.665Z,5.80
2018-11-20T10:30:15.833Z,5.90
2018-11-20T10:33:09.305Z,5.90
2018-11-20T10:35:57.721Z,6.00
2018-11-20T10:41:50.322Z,6.10
2018-11-20T10:44:37.210Z,6.00
2018-11-20T10:47:25.262Z,6.10
2018-11-20T10:50:40.919Z,6.20
2018-11-20T10:53:19.423Z,6.20
2018-11-20T10:56:06.293Z,6.30
2018-11-20T10:59:11.082Z,6.40
2018-11-20T11:01:57.981Z,6.50
2018-11-20T11:04:45.354Z,6.50
2018-11-20T11:07:48.715Z,6.50
2018-11-20T11:10:27.589Z,6.40
2018-11-20T11:13:14.637Z,6.40
2018-11-20T11:16:13.062Z,6.50
2018-11-20T11:19:18.982Z,6.60
2018-11-20T11:22:05.786Z,6.60
2018-11-20T11:24:54.374Z,6.60
2018-11-20T11:27:45.640Z,6.40
2018-11-20T11:30:23.456Z,6.40
2018-11-20T11:33:26.808Z,6.40
2018-11-20T11:36:05.777Z,6.50
2018-11-20T11:38:53.411Z,6.60
2018-11-20T11:41:40.676Z,6.70
2018-11-20T11:44:27.645Z,6.80
2018-11-20T11:47:15.886Z,6.90
2018-11-20T11:50:14.175Z,6.90
2018-11-20T11:53:03.887Z,6.90
2018-11-20T11:55:50.791Z,7.00
2018-11-20T11:58:41.956Z,6.80
2018-11-20T12:04:31.832Z,6.80
2018-11-20T12:07:38.137Z,6.80
2018-11-20T12:10:26.396Z,6.70
2018-11-20T12:16:14.362Z,6.80
2018-11-20T12:19:05.337Z,6.70
2018-11-20T12:21:53.106Z,6.60
2018-11-20T12:24:34.714Z,6.50
2018-11-20T12:27:25.789Z,6.50
2018-11-20T12:30:23.271Z,6.50
2018-11-20T12:33:10.004Z,6.50
2018-11-20T12:36:03.110Z,6.60
2018-11-20T12:38:52.481Z,6.70
2018-11-20T12:41:49.469Z,6.60
2018-11-20T12:44:38.368Z,6.70
2018-11-20T12:47:25.211Z,6.70
2018-11-20T12:50:11.784Z,6.80
2018-11-20T12:53:00.454Z,6.70
2018-11-20T12:55:59.789Z,6.60
2018-11-20T12:58:50.531Z,6.80
2018-11-20T13:01:57.466Z,6.70
2018-11-20T13:04:44.485Z,6.60
2018-11-20T13:07:23.129Z,6.60
2018-11-20T13:10:11.958Z,6.70
2018-11-20T13:13:05.969Z,6.50
2018-11-20T13:15:58.410Z,6.50
2018-11-20T13:18:42.045Z,6.60
2018-11-20T13:21:29.618Z,6.60
2018-11-20T13:24:16.457Z,6.70
2018-11-20T13:27:04.922Z,6.70
2018-11-20T13:29:59.003Z,6.80
2018-11-20T13:32:49.144Z,6.80
2018-11-20T13:35:36.205Z,6.80
2018-11-20T13:38:35.248Z,6.80
2018-11-20T13:42:05.769Z,6.70
2018-11-20T13:44:47.149Z,6.70
2018-11-20T13:47:34.115Z,6.70
2018-11-20T13:50:14.964Z,6.60
2018-11-20T13:53:01.916Z,6.60
2018-11-20T13:55:48.682Z,6.40
2018-11-20T13:58:49.113Z,6.40
2018-11-20T14:01:37.259Z,6.50
2018-11-20T14:04:26.655Z,6.40
2018-11-20T14:07:13.487Z,6.50
2018-11-20T14:09:54.850Z,6.30
2018-11-20T14:12:41.742Z,6.30
2018-11-20T14:15:31.111Z,6.20
2018-11-20T14:18:52.917Z,6.20
2018-11-20T14:21:36.992Z,6.30
2018-11-20T14:24:27.883Z,6.30
2018-11-20T14:27:15.411Z,6.30
2018-11-20T14:29:52.807Z,6.40
2018-11-20T14:32:52.579Z,6.30
2018-11-20T14:35:38.581Z,6.50
2018-11-20T14:38:31.563Z,6.30
2018-11-20T14:41:27.638Z,6.20
2018-11-20T14:44:05.229Z,6.30
2018-11-20T14:46:48.727Z,6.10
2018-11-20T14:49:40.786Z,6.20
2018-11-20T14:52:28.406Z,6.20
2018-11-20T14:55:20.271Z,6.10
2018-11-20T14:57:58.353Z,6.00
2018-11-20T15:01:04.690Z,6.00
2018-11-20T15:03:51.182Z,5.90
2018-11-20T15:06:47.869Z,5.90
2018-11-20T15:09:39.732Z,5.90
2018-11-20T15:12:38.954Z,6.10
2018-11-20T15:15:26.433Z,6.00
2018-11-20T15:18:21.079Z,6.00
2018-11-20T15:21:00.277Z,6.00
2018-11-20T15:23:46.548Z,5.90
2018-11-20T15:26:32.482Z,5.90
2018-11-20T15:29:25.863Z,5.90
2018-11-20T15:32:20.623Z,6.00
2018-11-20T15:35:03.681Z,5.90
2018-11-20T15:38:03.039Z,6.00
2018-11-20T15:40:49.573Z,5.90
2018-11-20T15:43:36.040Z,5.90
2018-11-20T15:46:39.170Z,5.80
2018-11-20T15:49:35.677Z,5.70
2018-11-20T15:52:28.836Z,5.80
2018-11-20T15:55:15.006Z,5.80
2018-11-20T15:58:01.059Z,5.70
2018-11-20T16:00:52.435Z,5.70
2018-11-20T16:03:37.550Z,5.70
2018-11-20T16:06:28.159Z,5.70
2018-11-20T16:09:27.351Z,5.70
2018-11-20T16:12:32.999Z,5.60
2018-11-20T16:15:21.883Z,5.60
2018-11-20T16:18:18.064Z,5.50
2018-11-20T16:21:15.012Z,5.50
2018-11-20T16:24:01.492Z,5.50
2018-11-20T16:27:06.977Z,5.50
2018-11-20T16:30:12.567Z,5.50
2018-11-20T16:33:05.790Z,5.60
2018-11-20T16:35:51.837Z,5.50
2018-11-20T16:38:50.088Z,5.50
2018-11-20T16:41:49.283Z,5.50
2018-11-20T16:44:41.811Z,5.40
2018-11-20T16:47:20.453Z,5.40
2018-11-20T16:50:04.408Z,5.40
2018-11-20T16:52:57.046Z,5.40
2018-11-20T16:55:37.349Z,5.50
2018-11-20T16:58:40.004Z,5.40
2018-11-20T17:01:26.195Z,5.40
2018-11-20T17:04:25.309Z,5.40
2018-11-20T17:07:28.272Z,5.50
2018-11-20T17:10:13.364Z,5.40
2018-11-20T17:12:59.938Z,5.40
2018-11-20T17:15:45.756Z,5.30
2018-11-20T17:18:25.101Z,5.40
2018-11-20T17:21:11.179Z,5.40
2018-11-20T17:23:57.284Z,5.40
2018-11-20T17:26:43.371Z,5.40
2018-11-20T17:29:29.800Z,5.30
2018-11-20T17:32:15.956Z,5.30
2018-11-20T17:35:01.955Z,5.40
2018-11-20T17:37:54.954Z,5.40
2018-11-20T17:40:41.017Z,5.30
2018-11-20T17:43:28.370Z,5.40
2018-11-20T17:46:07.608Z,5.50
2018-11-20T17:48:50.065Z,5.40
2018-11-20T17:51:36.072Z,5.50
2018-11-20T17:54:32.991Z,5.40
2018-11-20T17:57:25.996Z,5.40
2018-11-20T18:00:25.279Z,5.40
2018-11-20T18:03:11.602Z,5.40
2018-11-20T18:05:58.991Z,5.50
2018-11-20T18:08:46.326Z,5.50
2018-11-20T18:11:32.763Z,5.40
2018-11-20T18:14:22.874Z,5.30
2018-11-20T18:17:08.937Z,5.40
2018-11-20T18:19:55.793Z,5.40
2018-11-20T18:22:35.327Z,5.50
2018-11-20T18:25:21.929Z,5.50
2018-11-20T18:28:18.484Z,5.50
2018-11-20T18:31:06.852Z,5.50
2018-11-20T18:33:45.552Z,5.40
2018-11-20T18:36:44.934Z,5.30
2018-11-20T18:39:38.078Z,5.40
2018-11-20T18:42:24.635Z,5.30
2018-11-20T18:45:10.457Z,5.40
2018-11-20T18:48:16.139Z,5.30
2018-11-20T18:51:02.353Z,5.30
2018-11-20T18:53:52.818Z,5.30
2018-11-20T18:56:40.204Z,5.30
2018-11-20T18:59:33.659Z,5.30
2018-11-20T19:02:24.029Z,5.30
2018-11-20T19:05:10.104Z,5.30
2018-11-20T19:07:56.167Z,5.30
2018-11-20T19:10:42.851Z,5.30
2018-11-20T19:13:28.950Z,5.30
2018-11-20T19:16:25.160Z,5.20
2018-11-20T19:19:16.482Z,5.20
2018-11-20T19:22:00.845Z,5.10
2018-11-20T19:24:47.424Z,5.00
2018-11-20T19:27:33.524Z,5.00
2018-11-20T19:30:20.300Z,4.90
2018-11-20T19:33:06.706Z,4.90
2018-11-20T19:35:52.638Z,4.90
2018-11-20T19:38:38.791Z,4.80
2018-11-20T19:41:24.677Z,4.90
2018-11-20T19:44:10.620Z,4.80
2018-11-20T19:47:10.007Z,4.90
2018-11-20T19:49:56.002Z,4.90
2018-11-20T19:52:50.500Z,5.00
2018-11-20T19:55:37.117Z,5.00
2018-11-20T19:58:24.749Z,5.00
2018-11-20T20:01:10.873Z,5.00
2018-11-20T20:03:45.754Z,4.90
2018-11-20T20:06:28.720Z,4.90
2018-11-20T20:09:19.100Z,5.00
2018-11-20T20:12:01.210Z,5.00
2018-11-20T20:15:00.239Z,4.90
2018-11-20T20:18:02.849Z,4.90
2018-11-20T20:20:55.817Z,4.90
2018-11-20T20:23:45.954Z,4.80
2018-11-20T20:26:33.586Z,4.70
2018-11-20T20:29:19.885Z,4.60
2018-11-20T20:32:10.063Z,4.50
2018-11-20T20:34:55.803Z,4.50
2018-11-20T20:37:37.519Z,4.40
2018-11-20T20:40:23.828Z,4.30
2018-11-20T20:43:11.282Z,4.20
2018-11-20T20:45:58.664Z,4.20
2018-11-20T20:48:46.074Z,4.10
2018-11-20T20:51:24.073Z,4.00
2018-11-20T20:54:12.549Z,3.90
2018-11-20T20:57:06.814Z,3.90
2018-11-20T21:00:00.237Z,3.90
2018-11-20T21:02:53.161Z,4.00
2018-11-20T21:05:39.396Z,4.00
2018-11-20T21:08:29.341Z,4.00
2018-11-20T21:11:16.725Z,4.10
2018-11-20T21:14:12.553Z,4.10
2018-11-20T21:16:59.925Z,4.20
2018-11-20T21:19:56.352Z,4.20
2018-11-20T21:22:42.674Z,4.20
2018-11-20T21:25:28.538Z,4.20
2018-11-20T21:28:14.290Z,4.30
2018-11-20T21:30:49.969Z,4.30
2018-11-20T21:33:36.208Z,4.40
2018-11-20T21:36:23.928Z,4.40
2018-11-20T21:39:17.201Z,4.40
2018-11-20T21:42:11.281Z,4.40
2018-11-20T21:44:47.721Z,4.50
2018-11-20T21:47:24.252Z,4.50
2018-11-20T21:50:17.351Z,4.60
2018-11-20T21:53:10.863Z,4.70
2018-11-20T21:55:56.076Z,4.70
2018-11-20T21:58:46.021Z,4.70
2018-11-20T22:01:32.273Z,4.80
2018-11-20T22:04:28.792Z,4.80
2018-11-20T22:07:15.351Z,4.80
2018-11-20T22:10:17.214Z,4.80
2018-11-20T22:13:03.243Z,4.80
2018-11-20T22:15:58.430Z,4.80
2018-11-20T22:18:51.017Z,4.80
2018-11-20T22:21:41.236Z,4.80
2018-11-20T22:24:27.359Z,4.90
2018-11-20T22:27:13.216Z,4.90
2018-11-20T22:29:58.886Z,4.90
2018-11-20T22:32:38.270Z,5.00
2018-11-20T22:35:24.378Z,5.00
2018-11-20T22:38:20.751Z,5.00
2018-11-20T22:41:19.979Z,5.00
2018-11-20T22:44:07.340Z,5.10
2018-11-20T22:47:13.256Z,5.10
2018-11-20T22:50:03.110Z,5.10
2018-11-20T22:52:47.090Z,5.10
2018-11-20T22:55:34.761Z,5.10
2018-11-20T22:58:24.476Z,5.10
2018-11-20T23:01:15.010Z,5.10
2018-11-20T23:04:01.243Z,5.20
2018-11-20T23:06:46.170Z,5.20
2018-11-20T23:09:14.367Z,5.10
2018-11-20T23:11:42.536Z,5.10
2018-11-20T23:14:10.681Z,5.10
2018-11-20T23:16:38.886Z,5.10
2018-11-20T23:19:07.255Z,5.20
2018-11-20T23:21:35.424Z,5.10
2018-11-20T23:24:03.626Z,5.20
2018-11-20T23:26:31.772Z,5.20
2018-11-20T23:28:59.963Z,5.10
2018-11-20T23:31:28.363Z,5.00
2018-11-20T23:33:56.502Z,5.00
2018-11-20T23:36:24.647Z,4.90
2018-11-20T23:38:52.842Z,4.90
2018-11-20T23:41:22.868Z,4.80
2018-11-20T23:43:50.984Z,4.80
2018-11-20T23:46:19.188Z,4.70
2018-11-20T23:48:47.332Z,4.70
2018-11-20T23:51:15.513Z,4.60
2018-11-20T23:53:43.719Z,4.60
2018-11-20T23:56:11.864Z,4.50
2018-11-20T23:58:40.155Z,4.40
